Time;durP1;ratioP1;P1;durP2;ratioP2;P2;SDS_P1;SDS_P2;PMS_P1;PMS_P2;Temp;Humidity;BMP_temperature;BMP_pressure;BME280_temperature;BME280_humidity;BME280_pressure;Samples;Min_cycle;Max_cycle;Signal;HPM_P1;HPM_P2
2021/09/24 00:02:17;;;;;;;;;;;16.50;80.40;;;;;;5092834;28;19915;-76
2021/09/24 00:04:43;;;;;;;;;;;16.50;80.40;;;;;;5111011;28;19914;-78
2021/09/24 00:07:08;;;;;;;;;;;16.50;80.50;;;;;;5111003;28;19907;-76
2021/09/24 00:09:34;;;;;;;;;;;16.50;80.50;;;;;;5110906;28;20006;-75
2021/09/24 00:12:00;;;;;;;;;;;16.50;80.60;;;;;;5111014;28;19908;-75
2021/09/24 00:14:25;;;;;;;;;;;16.50;80.60;;;;;;5110678;28;19915;-76
2021/09/24 00:16:51;;;;;;;;;;;16.50;80.60;;;;;;5109804;28;19904;-74
2021/09/24 00:19:16;;;;;;;;;;;16.60;80.70;;;;;;5110951;28;20388;-78
2021/09/24 00:21:42;;;;;;;;;;;16.60;80.90;;;;;;5110825;28;20336;-77
2021/09/24 00:24:07;;;;;;;;;;;16.60;81.20;;;;;;5092480;28;19911;-74
2021/09/24 00:26:33;;;;;;;;;;;16.50;81.40;;;;;;5110706;28;19943;-75
2021/09/24 00:28:58;;;;;;;;;;;16.50;81.60;;;;;;5092498;28;19907;-74
2021/09/24 00:31:25;;;;;;;;;;;16.40;81.90;;;;;;5092267;28;19922;-76
2021/09/24 00:33:51;;;;;;;;;;;16.40;82.00;;;;;;5110310;28;20310;-76
2021/09/24 00:36:17;;;;;;;;;;;16.40;82.20;;;;;;5110518;28;19911;-76
2021/09/24 00:38:42;;;;;;;;;;;16.40;82.40;;;;;;5110593;28;19969;-76
2021/09/24 00:41:08;;;;;;;;;;;16.40;82.50;;;;;;5092131;28;19912;-76
2021/09/24 00:43:34;;;;;;;;;;;16.40;82.80;;;;;;5110214;28;20322;-74
2021/09/24 00:46:00;;;;;;;;;;;16.40;82.90;;;;;;5092071;28;20019;-76
2021/09/24 00:48:25;;;;;;;;;;;16.40;83.30;;;;;;5092012;28;20183;-77
2021/09/24 00:50:51;;;;;;;;;;;16.40;83.50;;;;;;5091792;28;20317;-78
2021/09/24 00:53:17;;;;;;;;;;;16.40;83.80;;;;;;5110034;28;20320;-75
2021/09/24 00:55:42;;;;;;;;;;;16.40;83.90;;;;;;5110221;28;19904;-77
2021/09/24 00:58:08;;;;;;;;;;;16.40;84.20;;;;;;5109982;28;19914;-74
2021/09/24 01:00:33;;;;;;;;;;;16.40;84.30;;;;;;5109949;28;19914;-76
2021/09/24 01:02:59;;;;;;;;;;;16.50;84.50;;;;;;5091801;28;19926;-76
2021/09/24 01:05:25;;;;;;;;;;;16.50;84.60;;;;;;5091575;28;19904;-76
2021/09/24 01:07:50;;;;;;;;;;;16.50;84.60;;;;;;5109847;28;19910;-76
2021/09/24 01:10:16;;;;;;;;;;;16.50;84.70;;;;;;5109942;28;19919;-78
2021/09/24 01:12:42;;;;;;;;;;;16.50;84.70;;;;;;5091332;28;19939;-76
2021/09/24 01:15:09;;;;;;;;;;;16.60;85.00;;;;;;5109552;28;19983;-75
2021/09/24 01:17:35;;;;;;;;;;;16.60;85.00;;;;;;5109456;28;19904;-78
2021/09/24 01:20:01;;;;;;;;;;;16.60;85.30;;;;;;5091444;28;19907;-77
2021/09/24 01:22:27;;;;;;;;;;;16.60;85.50;;;;;;5091281;28;19952;-76
2021/09/24 01:24:52;;;;;;;;;;;16.70;85.90;;;;;;5091267;28;19908;-75
2021/09/24 01:27:18;;;;;;;;;;;16.60;86.00;;;;;;5091160;28;19947;-76
2021/09/24 01:29:48;;;;;;;;;;;16.60;86.20;;;;;;5109367;28;19920;-77
2021/09/24 01:32:14;;;;;;;;;;;16.70;86.70;;;;;;5109252;28;19949;-75
2021/09/24 01:34:39;;;;;;;;;;;16.70;86.80;;;;;;5109486;28;19908;-76
2021/09/24 01:37:05;;;;;;;;;;;16.70;87.00;;;;;;5091211;28;19982;-76
2021/09/24 01:39:30;;;;;;;;;;;16.70;87.10;;;;;;5090911;28;19943;-77
2021/09/24 01:41:56;;;;;;;;;;;16.80;87.40;;;;;;5109172;28;20413;-77
2021/09/24 01:44:21;;;;;;;;;;;16.80;87.70;;;;;;5109038;28;19908;-76
2021/09/24 01:46:47;;;;;;;;;;;16.80;87.80;;;;;;5109126;28;19942;-73
2021/09/24 01:49:13;;;;;;;;;;;16.80;88.00;;;;;;5090616;28;20314;-75
2021/09/24 01:51:39;;;;;;;;;;;16.80;88.20;;;;;;5109081;28;19963;-76
2021/09/24 01:54:05;;;;;;;;;;;16.80;88.40;;;;;;5108890;28;19904;-76
2021/09/24 01:56:31;;;;;;;;;;;16.80;88.90;;;;;;5108980;28;19908;-77
2021/09/24 01:58:57;;;;;;;;;;;16.80;89.00;;;;;;5108984;28;20342;-77
2021/09/24 02:01:23;;;;;;;;;;;16.80;89.40;;;;;;5108729;28;19911;-77
2021/09/24 02:03:48;;;;;;;;;;;16.80;89.70;;;;;;5108852;28;20339;-76
2021/09/24 02:06:14;;;;;;;;;;;16.80;89.70;;;;;;5108739;28;20262;-74
2021/09/24 02:08:40;;;;;;;;;;;16.90;89.90;;;;;;5108852;28;20268;-77
2021/09/24 02:11:07;;;;;;;;;;;16.90;90.00;;;;;;5108661;28;19914;-74
2021/09/24 02:13:33;;;;;;;;;;;16.90;90.10;;;;;;5090208;28;19920;-74
2021/09/24 02:15:59;;;;;;;;;;;16.90;90.20;;;;;;5108655;28;20272;-77
2021/09/24 02:18:24;;;;;;;;;;;16.90;90.20;;;;;;5108604;28;20384;-76
2021/09/24 02:20:50;;;;;;;;;;;17.00;90.30;;;;;;5108599;28;19914;-74
2021/09/24 02:23:16;;;;;;;;;;;17.00;90.50;;;;;;5108469;28;19911;-74
2021/09/24 02:25:41;;;;;;;;;;;17.00;90.50;;;;;;5090333;28;19903;-73
2021/09/24 02:28:07;;;;;;;;;;;17.00;90.70;;;;;;5108438;28;19904;-75
2021/09/24 02:30:32;;;;;;;;;;;17.00;90.90;;;;;;5108279;28;19916;-74
2021/09/24 02:32:58;;;;;;;;;;;17.00;91.20;;;;;;5108417;28;20002;-75
2021/09/24 02:35:24;;;;;;;;;;;17.00;91.20;;;;;;5090084;28;20010;-77
2021/09/24 02:37:49;;;;;;;;;;;17.00;91.60;;;;;;5108301;28;19907;-75
2021/09/24 02:40:15;;;;;;;;;;;16.90;91.50;;;;;;5092074;28;19968;-76
2021/09/24 02:42:40;;;;;;;;;;;17.00;91.70;;;;;;5112646;28;19904;-74
2021/09/24 02:45:06;;;;;;;;;;;16.90;92.00;;;;;;5112425;28;20303;-75
2021/09/24 02:47:32;;;;;;;;;;;16.90;92.00;;;;;;5112471;28;19943;-75
2021/09/24 02:49:57;;;;;;;;;;;16.90;92.20;;;;;;5112450;28;19959;-75
2021/09/24 02:52:23;;;;;;;;;;;16.90;92.40;;;;;;5094239;28;19915;-76
2021/09/24 02:54:49;;;;;;;;;;;16.90;92.50;;;;;;5112285;28;19964;-75
2021/09/24 02:57:14;;;;;;;;;;;16.90;92.60;;;;;;5094053;28;19904;-75
2021/09/24 02:59:40;;;;;;;;;;;16.90;92.80;;;;;;5093915;28;19961;-77
2021/09/24 03:02:05;;;;;;;;;;;16.90;92.80;;;;;;5112271;28;19951;-75
2021/09/24 03:04:31;;;;;;;;;;;16.90;92.90;;;;;;5093920;28;19904;-75
2021/09/24 03:06:57;;;;;;;;;;;17.00;93.00;;;;;;5093907;28;19914;-75
2021/09/24 03:09:22;;;;;;;;;;;17.00;93.00;;;;;;5093734;28;19955;-76
2021/09/24 03:11:48;;;;;;;;;;;17.00;93.00;;;;;;5094056;28;19915;-76
2021/09/24 03:14:13;;;;;;;;;;;17.00;93.20;;;;;;5111857;28;20358;-75
2021/09/24 03:16:41;;;;;;;;;;;17.00;93.30;;;;;;5093938;28;19919;-76
2021/09/24 03:19:07;;;;;;;;;;;17.00;93.40;;;;;;5111906;28;19920;-74
2021/09/24 03:21:33;;;;;;;;;;;17.00;93.50;;;;;;5112006;28;19911;-76
2021/09/24 03:23:58;;;;;;;;;;;17.00;93.60;;;;;;5111801;28;20347;-76
2021/09/24 03:26:24;;;;;;;;;;;17.00;93.70;;;;;;5111875;28;19908;-76
2021/09/24 03:28:49;;;;;;;;;;;17.00;93.80;;;;;;5111817;28;19904;-75
2021/09/24 03:31:15;;;;;;;;;;;17.00;94.00;;;;;;5112257;28;19946;-76
2021/09/24 03:33:41;;;;;;;;;;;17.00;94.00;;;;;;5093218;28;19911;-76
2021/09/24 03:36:06;;;;;;;;;;;17.00;94.20;;;;;;5111697;28;19907;-79
2021/09/24 03:38:32;;;;;;;;;;;17.00;94.20;;;;;;5111436;28;19904;-75
2021/09/24 03:40:58;;;;;;;;;;;17.00;94.30;;;;;;5111625;28;19911;-78
2021/09/24 03:43:23;;;;;;;;;;;17.10;94.40;;;;;;5111392;28;20389;-76
2021/09/24 03:45:49;;;;;;;;;;;17.10;94.40;;;;;;5111429;28;19943;-75
2021/09/24 03:48:14;;;;;;;;;;;17.10;94.50;;;;;;5093259;28;19930;-76
2021/09/24 03:50:40;;;;;;;;;;;17.10;94.60;;;;;;5110745;28;19912;-75
2021/09/24 03:53:06;;;;;;;;;;;17.20;94.70;;;;;;5092115;28;19904;-76
2021/09/24 03:55:31;;;;;;;;;;;17.20;94.90;;;;;;5111073;28;20358;-75
2021/09/24 03:57:57;;;;;;;;;;;17.20;94.90;;;;;;5111609;28;19908;-77
2021/09/24 04:00:22;;;;;;;;;;;17.20;95.00;;;;;;5093145;28;19961;-75
2021/09/24 04:02:48;;;;;;;;;;;17.30;95.10;;;;;;5111055;28;20334;-77
2021/09/24 04:05:14;;;;;;;;;;;17.20;95.20;;;;;;5111195;28;19931;-77
2021/09/24 04:07:40;;;;;;;;;;;17.30;95.20;;;;;;5110977;28;19911;-76
2021/09/24 04:10:06;;;;;;;;;;;17.30;95.20;;;;;;5110865;28;20427;-76
2021/09/24 04:12:31;;;;;;;;;;;17.30;95.20;;;;;;5110728;28;19908;-74
2021/09/24 04:14:57;;;;;;;;;;;17.40;95.30;;;;;;5092356;28;19964;-76
2021/09/24 04:17:22;;;;;;;;;;;17.40;95.20;;;;;;5110785;28;20342;-74
2021/09/24 04:19:48;;;;;;;;;;;17.40;95.30;;;;;;5110901;28;19954;-77
2021/09/24 04:22:14;;;;;;;;;;;17.40;95.30;;;;;;5092529;28;19968;-76
2021/09/24 04:24:39;;;;;;;;;;;17.40;95.30;;;;;;5110757;28;19931;-76
2021/09/24 04:27:05;;;;;;;;;;;17.40;95.30;;;;;;5092671;28;19915;-77
2021/09/24 04:29:30;;;;;;;;;;;17.40;95.30;;;;;;5110502;28;19908;-76
2021/09/24 04:31:56;;;;;;;;;;;17.50;95.40;;;;;;5092325;28;19908;-76
2021/09/24 04:34:21;;;;;;;;;;;17.50;95.40;;;;;;5110411;28;19914;-77
2021/09/24 04:36:47;;;;;;;;;;;17.50;95.40;;;;;;5110404;28;19965;-76
2021/09/24 04:39:12;;;;;;;;;;;17.50;95.40;;;;;;5092159;28;19931;-74
2021/09/24 04:41:38;;;;;;;;;;;17.50;95.50;;;;;;5110285;28;19907;-75
2021/09/24 04:44:04;;;;;;;;;;;17.50;95.50;;;;;;5110676;28;19907;-77
2021/09/24 04:46:29;;;;;;;;;;;17.50;95.60;;;;;;5092071;28;19952;-77
2021/09/24 04:48:55;;;;;;;;;;;17.50;95.60;;;;;;5091909;28;19955;-77
2021/09/24 04:51:21;;;;;;;;;;;17.50;95.70;;;;;;5110045;28;19990;-76
2021/09/24 04:53:46;;;;;;;;;;;17.50;95.70;;;;;;5091893;28;19911;-75
2021/09/24 04:56:12;;;;;;;;;;;17.50;95.80;;;;;;5091750;28;19969;-76
2021/09/24 04:58:37;;;;;;;;;;;17.50;95.70;;;;;;5110004;28;19908;-76
2021/09/24 05:01:03;;;;;;;;;;;17.50;95.80;;;;;;5091752;28;19908;-76
2021/09/24 05:03:29;;;;;;;;;;;17.50;95.80;;;;;;5109471;28;19998;-77
2021/09/24 05:05:55;;;;;;;;;;;17.50;95.90;;;;;;5091580;28;20377;-75
2021/09/24 05:08:20;;;;;;;;;;;17.60;95.90;;;;;;5109832;28;19947;-75
2021/09/24 05:10:46;;;;;;;;;;;17.60;96.00;;;;;;5091596;28;19938;-77
2021/09/24 05:13:11;;;;;;;;;;;17.60;96.00;;;;;;5074321;28;19919;-76
2021/09/24 05:15:37;;;;;;;;;;;17.60;96.10;;;;;;5074401;28;20021;-77
2021/09/24 05:18:02;;;;;;;;;;;17.60;96.10;;;;;;5091274;28;20346;-76
2021/09/24 05:20:29;;;;;;;;;;;17.60;96.10;;;;;;5109437;28;19912;-76
2021/09/24 05:22:55;;;;;;;;;;;17.70;96.30;;;;;;5091293;28;19918;-76
2021/09/24 05:25:22;;;;;;;;;;;17.70;96.30;;;;;;5109390;28;19907;-75
2021/09/24 05:27:48;;;;;;;;;;;17.70;96.30;;;;;;5109127;28;19968;-76
2021/09/24 05:30:13;;;;;;;;;;;17.70;96.30;;;;;;5109331;28;19915;-77
2021/09/24 05:32:39;;;;;;;;;;;17.80;96.40;;;;;;5109233;28;19911;-76
2021/09/24 05:35:05;;;;;;;;;;;17.80;96.50;;;;;;5109235;28;19907;-76
2021/09/24 05:37:31;;;;;;;;;;;17.80;96.50;;;;;;5090767;28;19911;-77
2021/09/24 05:39:56;;;;;;;;;;;17.80;96.50;;;;;;5074193;28;19915;-75
2021/09/24 05:42:22;;;;;;;;;;;17.80;96.60;;;;;;5109086;28;20369;-75
2021/09/24 05:44:47;;;;;;;;;;;17.80;96.60;;;;;;5090717;28;19933;-76
2021/09/24 05:47:13;;;;;;;;;;;17.80;96.60;;;;;;5073801;28;20002;-77
2021/09/24 05:49:39;;;;;;;;;;;17.80;96.60;;;;;;5108856;28;19903;-77
2021/09/24 05:52:04;;;;;;;;;;;17.80;96.70;;;;;;5108903;28;19907;-77
2021/09/24 05:54:30;;;;;;;;;;;17.90;96.80;;;;;;5108792;28;19908;-76
2021/09/24 05:56:55;;;;;;;;;;;17.90;96.80;;;;;;5090317;28;19911;-78
2021/09/24 05:59:21;;;;;;;;;;;17.90;96.80;;;;;;5108654;28;19990;-75
2021/09/24 06:01:48;;;;;;;;;;;17.90;96.80;;;;;;5090592;28;19929;-77
2021/09/24 06:04:18;;;;;;;;;;;17.90;96.90;;;;;;5090255;28;20370;-76
2021/09/24 06:06:44;;;;;;;;;;;18.00;97.00;;;;;;5108417;28;19939;-77
2021/09/24 06:09:10;;;;;;;;;;;18.00;97.00;;;;;;5108463;28;19928;-77
2021/09/24 06:11:36;;;;;;;;;;;18.00;97.00;;;;;;5108350;28;19920;-76
2021/09/24 06:14:02;;;;;;;;;;;18.10;97.00;;;;;;5107370;28;19918;-75
2021/09/24 06:16:28;;;;;;;;;;;18.00;97.00;;;;;;5108126;28;19916;-75
2021/09/24 06:18:53;;;;;;;;;;;18.10;97.10;;;;;;5108042;28;19911;-75
2021/09/24 06:21:21;;;;;;;;;;;18.10;97.10;;;;;;5108688;28;20205;-75
2021/09/24 06:23:46;;;;;;;;;;;18.10;97.20;;;;;;5089801;28;20374;-75
2021/09/24 06:26:12;;;;;;;;;;;18.10;97.20;;;;;;5108137;28;19914;-76
2021/09/24 06:28:37;;;;;;;;;;;18.10;97.30;;;;;;5089833;28;20048;-74
2021/09/24 06:31:03;;;;;;;;;;;18.20;97.30;;;;;;5108050;28;19912;-74
2021/09/24 06:33:29;;;;;;;;;;;18.20;97.40;;;;;;5089762;28;20302;-76
2021/09/24 06:35:54;;;;;;;;;;;18.20;97.30;;;;;;5089730;28;19987;-75
2021/09/24 06:38:20;;;;;;;;;;;18.30;97.40;;;;;;5108179;28;20377;-77
2021/09/24 06:40:46;;;;;;;;;;;18.30;97.40;;;;;;5108125;28;19933;-74
2021/09/24 06:43:11;;;;;;;;;;;18.30;97.50;;;;;;5089970;28;20428;-75
2021/09/24 06:45:37;;;;;;;;;;;18.30;97.50;;;;;;5107793;28;19914;-74
2021/09/24 06:48:03;;;;;;;;;;;18.30;97.50;;;;;;5090377;28;20435;-74
2021/09/24 06:50:29;;;;;;;;;;;18.40;97.50;;;;;;5089822;28;19972;-74
2021/09/24 06:52:55;;;;;;;;;;;18.40;97.60;;;;;;5089472;28;20202;-74
2021/09/24 06:55:24;;;;;;;;;;;18.50;97.60;;;;;;5107401;28;20354;-75
2021/09/24 06:57:50;;;;;;;;;;;18.50;97.70;;;;;;5107836;28;20012;-74
2021/09/24 07:00:16;;;;;;;;;;;18.50;97.70;;;;;;5089113;28;19912;-74
2021/09/24 07:02:42;;;;;;;;;;;18.60;98.00;;;;;;5107585;28;19904;-76
2021/09/24 07:05:07;;;;;;;;;;;18.60;97.60;;;;;;5108098;28;19920;-75
2021/09/24 07:07:33;;;;;;;;;;;18.60;97.60;;;;;;5107488;28;20338;-75
2021/09/24 07:09:58;;;;;;;;;;;18.70;97.60;;;;;;5107598;28;19915;-78
2021/09/24 07:12:25;;;;;;;;;;;18.70;97.50;;;;;;5107704;28;19911;-75
2021/09/24 07:14:50;;;;;;;;;;;18.70;97.50;;;;;;5089157;28;19911;-75
2021/09/24 07:17:16;;;;;;;;;;;18.80;97.60;;;;;;5089705;28;20380;-77
2021/09/24 07:19:42;;;;;;;;;;;18.80;97.60;;;;;;5107483;28;19953;-76
2021/09/24 07:22:08;;;;;;;;;;;18.80;97.60;;;;;;5107555;28;19982;-75
2021/09/24 07:24:34;;;;;;;;;;;18.90;97.60;;;;;;5107600;28;19936;-73
2021/09/24 07:27:00;;;;;;;;;;;18.80;97.60;;;;;;5075183;28;19994;-76
2021/09/24 07:29:25;;;;;;;;;;;18.90;97.60;;;;;;5111346;28;19920;-73
2021/09/24 07:31:51;;;;;;;;;;;18.90;97.60;;;;;;5111449;28;19907;-74
2021/09/24 07:34:16;;;;;;;;;;;18.90;97.60;;;;;;5111074;28;19922;-75
2021/09/24 07:36:42;;;;;;;;;;;18.90;97.60;;;;;;5111086;28;19960;-75
2021/09/24 07:39:07;;;;;;;;;;;19.00;97.60;;;;;;5110857;28;19907;-74
2021/09/24 07:41:33;;;;;;;;;;;19.00;97.50;;;;;;5092405;28;19908;-74
2021/09/24 07:44:00;;;;;;;;;;;19.00;97.50;;;;;;5092666;28;20014;-76
2021/09/24 07:46:25;;;;;;;;;;;19.10;97.50;;;;;;5111062;28;19908;-75
2021/09/24 07:48:51;;;;;;;;;;;19.20;97.40;;;;;;5111411;28;19907;-76
2021/09/24 07:51:17;;;;;;;;;;;19.20;97.30;;;;;;5092478;28;20323;-75
2021/09/24 07:53:42;;;;;;;;;;;19.30;97.30;;;;;;5091800;28;19939;-75
2021/09/24 07:56:08;;;;;;;;;;;19.30;97.20;;;;;;5110733;28;19912;-75
2021/09/24 07:58:36;;;;;;;;;;;19.30;97.20;;;;;;5092686;28;19908;-74
2021/09/24 08:01:01;;;;;;;;;;;19.30;97.10;;;;;;5092357;28;20350;-74
2021/09/24 08:03:27;;;;;;;;;;;19.40;97.10;;;;;;5110427;28;19908;-75
2021/09/24 08:05:52;;;;;;;;;;;19.40;97.10;;;;;;5092601;28;19911;-75
2021/09/24 08:08:18;;;;;;;;;;;19.50;97.00;;;;;;5111832;28;20011;-76
2021/09/24 08:10:43;;;;;;;;;;;19.60;97.00;;;;;;5111701;28;19919;-74
2021/09/24 08:13:09;;;;;;;;;;;19.70;96.90;;;;;;5111542;28;19916;-76
2021/09/24 08:15:36;;;;;;;;;;;19.70;96.80;;;;;;5111502;28;19977;-76
2021/09/24 08:18:01;;;;;;;;;;;19.70;96.70;;;;;;5111743;28;19972;-74
2021/09/24 08:20:27;;;;;;;;;;;19.80;96.70;;;;;;5111842;28;19908;-76
2021/09/24 08:22:52;;;;;;;;;;;19.90;96.70;;;;;;5110806;28;20313;-73
2021/09/24 08:25:19;;;;;;;;;;;19.90;96.70;;;;;;5111148;28;20266;-74
2021/09/24 08:27:46;;;;;;;;;;;20.00;96.60;;;;;;5110223;28;19904;-75
2021/09/24 08:30:12;;;;;;;;;;;20.10;96.40;;;;;;5110921;28;20359;-72
2021/09/24 08:32:38;;;;;;;;;;;20.20;96.40;;;;;;5110720;28;20374;-76
2021/09/24 08:35:08;;;;;;;;;;;20.40;96.30;;;;;;5111004;28;19907;-74
2021/09/24 08:37:34;;;;;;;;;;;20.80;96.20;;;;;;5109882;28;19904;-73
2021/09/24 08:40:00;;;;;;;;;;;21.20;96.10;;;;;;5110821;28;19903;-76
2021/09/24 08:42:26;;;;;;;;;;;21.70;95.60;;;;;;5110956;28;20241;-77
2021/09/24 08:44:52;;;;;;;;;;;22.10;94.90;;;;;;5110376;28;19933;-73
2021/09/24 08:47:18;;;;;;;;;;;22.50;94.90;;;;;;5092160;28;19911;-74
2021/09/24 08:49:44;;;;;;;;;;;22.90;93.90;;;;;;5110004;28;20415;-73
2021/09/24 08:52:10;;;;;;;;;;;23.20;93.60;;;;;;5109993;28;19910;-75
2021/09/24 08:54:36;;;;;;;;;;;23.20;92.50;;;;;;5091505;28;20523;-76
2021/09/24 08:57:02;;;;;;;;;;;22.90;92.00;;;;;;5110095;28;19907;-76
2021/09/24 08:59:28;;;;;;;;;;;22.60;92.20;;;;;;5110083;28;19907;-76
2021/09/24 09:02:04;;;;;;;;;;;22.20;92.10;;;;;;5110168;28;19960;-74
2021/09/24 09:04:33;;;;;;;;;;;21.90;92.40;;;;;;5109853;28;19912;-74
2021/09/24 09:07:03;;;;;;;;;;;21.70;92.80;;;;;;5110091;28;19911;-74
2021/09/24 09:09:32;;;;;;;;;;;21.70;93.10;;;;;;5109556;28;19907;-75
2021/09/24 09:12:07;;;;;;;;;;;21.70;93.10;;;;;;5110157;28;19904;-74
2021/09/24 09:14:33;;;;;;;;;;;21.70;93.20;;;;;;5108552;28;19961;-78
2021/09/24 09:16:58;;;;;;;;;;;21.80;93.10;;;;;;5109878;28;19969;-76
2021/09/24 09:19:24;;;;;;;;;;;21.80;93.10;;;;;;5109878;28;19911;-74
2021/09/24 09:21:49;;;;;;;;;;;21.80;92.90;;;;;;5092124;28;19930;-75
2021/09/24 09:24:21;;;;;;;;;;;21.80;93.00;;;;;;5092139;28;19912;-76
2021/09/24 09:26:48;;;;;;;;;;;21.80;93.00;;;;;;5108112;28;20245;-77
2021/09/24 09:29:14;;;;;;;;;;;21.80;92.90;;;;;;5091237;28;19903;-77
2021/09/24 09:31:40;;;;;;;;;;;21.90;92.80;;;;;;5110378;28;20350;-78
2021/09/24 09:34:07;;;;;;;;;;;21.90;92.80;;;;;;5110200;28;19903;-75
2021/09/24 09:36:37;;;;;;;;;;;21.90;92.60;;;;;;5109737;28;19912;-77
2021/09/24 09:39:10;;;;;;;;;;;22.00;92.70;;;;;;5109825;28;19905;-75
2021/09/24 09:41:36;;;;;;;;;;;22.10;92.60;;;;;;5109932;28;19911;-75
2021/09/24 09:44:02;;;;;;;;;;;22.20;92.40;;;;;;5110359;28;19908;-76
2021/09/24 09:46:30;;;;;;;;;;;22.30;92.10;;;;;;5109758;28;19904;-76
2021/09/24 09:49:04;;;;;;;;;;;22.50;92.10;;;;;;5091279;28;19960;-74
2021/09/24 09:51:30;;;;;;;;;;;22.60;92.00;;;;;;5091146;28;19919;-76
2021/09/24 09:53:55;;;;;;;;;;;22.70;92.00;;;;;;5090879;28;19913;-75
2021/09/24 09:56:21;;;;;;;;;;;23.10;91.80;;;;;;5108962;28;20335;-73
2021/09/24 09:58:47;;;;;;;;;;;23.60;92.10;;;;;;5108845;28;20745;-75
2021/09/24 10:01:16;;;;;;;;;;;24.10;91.20;;;;;;5108989;28;19911;-75
2021/09/24 10:03:46;;;;;;;;;;;24.00;90.80;;;;;;5091440;28;19904;-74
2021/09/24 10:06:19;;;;;;;;;;;23.80;90.60;;;;;;5109226;28;19903;-76
2021/09/24 10:08:45;;;;;;;;;;;23.70;90.40;;;;;;5089896;28;19910;-75
2021/09/24 10:11:13;;;;;;;;;;;23.50;90.60;;;;;;5090769;28;20299;-75
2021/09/24 10:13:55;;;;;;;;;;;23.80;90.90;;;;;;5091426;28;20002;-77
2021/09/24 10:16:22;;;;;;;;;;;24.40;90.30;;;;;;5107570;28;19931;-74
2021/09/24 10:18:48;;;;;;;;;;;24.70;88.80;;;;;;5090953;28;20319;-76
2021/09/24 10:21:14;;;;;;;;;;;25.00;87.70;;;;;;5090736;28;19908;-76
2021/09/24 10:23:40;;;;;;;;;;;25.10;86.60;;;;;;5090969;28;20009;-76
2021/09/24 10:26:08;;;;;;;;;;;25.20;85.40;;;;;;5109682;28;19928;-75
2021/09/24 10:28:35;;;;;;;;;;;25.40;86.10;;;;;;5108677;28;19991;-75
2021/09/24 10:31:01;;;;;;;;;;;25.70;84.80;;;;;;5109198;28;20328;-77
2021/09/24 10:33:44;;;;;;;;;;;25.80;84.90;;;;;;5091150;28;20254;-76
2021/09/24 10:36:10;;;;;;;;;;;25.70;83.50;;;;;;5108260;28;20369;-75
2021/09/24 10:38:42;;;;;;;;;;;25.40;82.50;;;;;;5108485;28;19912;-77
2021/09/24 10:41:10;;;;;;;;;;;25.20;82.70;;;;;;5090013;28;19964;-78
2021/09/24 10:43:49;;;;;;;;;;;25.10;83.40;;;;;;5106757;28;19904;-76
2021/09/24 10:46:23;;;;;;;;;;;25.10;83.40;;;;;;5091437;28;19903;-78
2021/09/24 10:49:09;;;;;;;;;;;24.90;82.50;;;;;;5091071;28;19915;-76
2021/09/24 10:51:37;;;;;;;;;;;24.70;83.10;;;;;;5105945;28;19992;-78
2021/09/24 10:54:13;;;;;;;;;;;24.60;83.30;;;;;;5090709;28;19904;-75
2021/09/24 10:56:39;;;;;;;;;;;24.80;84.60;;;;;;5089973;28;20334;-73
2021/09/24 10:59:21;;;;;;;;;;;25.80;84.70;;;;;;5108993;28;20004;-75
2021/09/24 11:01:47;;;;;;;;;;;26.80;83.20;;;;;;5111623;28;19931;-74
2021/09/24 11:04:14;;;;;;;;;;;27.80;80.90;;;;;;5113212;28;19996;-76
2021/09/24 11:06:48;;;;;;;;;;;28.70;80.50;;;;;;5094043;28;20004;-75
2021/09/24 11:09:17;;;;;;;;;;;29.30;76.60;;;;;;5112693;28;19952;-77
2021/09/24 11:12:02;;;;;;;;;;;29.00;74.50;;;;;;5112792;28;19927;-76
2021/09/24 11:14:33;;;;;;;;;;;28.20;73.80;;;;;;5111530;28;19912;-76
2021/09/24 11:16:59;;;;;;;;;;;27.50;73.30;;;;;;5086832;28;19904;-76
2021/09/24 11:19:32;;;;;;;;;;;27.20;74.30;;;;;;5094718;28;19908;-77
2021/09/24 11:21:57;;;;;;;;;;;27.10;75.50;;;;;;5112590;28;20280;-75
2021/09/24 11:24:26;;;;;;;;;;;27.10;76.20;;;;;;5112254;28;19903;-75
2021/09/24 11:26:56;;;;;;;;;;;27.00;75.00;;;;;;5111625;28;20003;-75
2021/09/24 11:29:27;;;;;;;;;;;26.60;74.50;;;;;;5111641;28;19904;-75
2021/09/24 11:31:53;;;;;;;;;;;26.20;74.00;;;;;;5112084;28;19923;-75
2021/09/24 11:37:03;;;;;;;;;;;25.40;75.70;;;;;;5113131;28;19996;-76
2021/09/24 11:39:29;;;;;;;;;;;25.10;75.90;;;;;;5093886;28;20259;-75
2021/09/24 11:42:05;;;;;;;;;;;24.80;76.10;;;;;;5112440;28;19998;-76
2021/09/24 11:44:30;;;;;;;;;;;24.50;76.40;;;;;;5113189;28;19904;-75
2021/09/24 11:46:56;;;;;;;;;;;24.10;76.80;;;;;;5112467;28;19916;-75
2021/09/24 11:49:22;;;;;;;;;;;23.90;77.60;;;;;;5112609;28;20306;-75
2021/09/24 11:51:57;;;;;;;;;;;23.70;78.40;;;;;;5112737;28;20410;-75
2021/09/24 11:54:23;;;;;;;;;;;23.50;78.80;;;;;;5094323;28;20278;-74
2021/09/24 11:56:48;;;;;;;;;;;23.50;79.40;;;;;;5077285;28;19914;-75
2021/09/24 11:59:14;;;;;;;;;;;23.40;79.60;;;;;;5112131;28;19939;-76
2021/09/24 12:01:43;;;;;;;;;;;23.40;80.00;;;;;;5111731;28;19939;-77
2021/09/24 12:04:13;;;;;;;;;;;23.40;80.30;;;;;;5093473;28;19954;-75
2021/09/24 12:06:40;;;;;;;;;;;23.40;80.40;;;;;;5108862;28;19998;-77
2021/09/24 12:09:11;;;;;;;;;;;23.50;80.70;;;;;;5110376;28;19928;-77
2021/09/24 12:11:51;;;;;;;;;;;23.60;80.70;;;;;;5110558;28;20354;-73
2021/09/24 12:14:17;;;;;;;;;;;23.70;80.80;;;;;;5083134;28;19920;-75
2021/09/24 12:16:43;;;;;;;;;;;23.70;80.70;;;;;;5082381;28;19908;-75
2021/09/24 12:19:10;;;;;;;;;;;23.70;80.80;;;;;;5076611;28;20340;-75
2021/09/24 12:21:38;;;;;;;;;;;23.70;80.80;;;;;;5077613;28;19904;-76
2021/09/24 12:24:08;;;;;;;;;;;23.60;80.80;;;;;;5083826;28;20003;-76
2021/09/24 12:26:35;;;;;;;;;;;23.60;80.90;;;;;;5081905;28;19931;-76
2021/09/24 12:29:04;;;;;;;;;;;23.50;81.20;;;;;;5082377;28;20482;-77
2021/09/24 12:31:34;;;;;;;;;;;23.50;81.30;;;;;;5081602;28;19916;-77
2021/09/24 12:33:59;;;;;;;;;;;23.40;81.40;;;;;;5074310;28;19947;-76
2021/09/24 12:36:25;;;;;;;;;;;23.40;81.70;;;;;;5060755;28;19947;-77
2021/09/24 12:38:52;;;;;;;;;;;23.40;81.90;;;;;;5081878;28;19998;-76
2021/09/24 12:41:18;;;;;;;;;;;23.40;82.20;;;;;;5089086;28;19909;-75
2021/09/24 12:43:44;;;;;;;;;;;23.40;82.30;;;;;;5072872;28;19908;-77
2021/09/24 12:46:11;;;;;;;;;;;23.50;82.40;;;;;;5089911;28;19908;-77
2021/09/24 12:48:41;;;;;;;;;;;23.60;82.40;;;;;;5091068;28;19990;-76
2021/09/24 12:51:08;;;;;;;;;;;23.60;82.40;;;;;;5090986;28;19998;-78
2021/09/24 12:53:34;;;;;;;;;;;23.60;82.30;;;;;;5090576;28;19965;-76
2021/09/24 12:56:00;;;;;;;;;;;23.60;82.20;;;;;;5090507;28;19926;-75
2021/09/24 12:58:30;;;;;;;;;;;23.50;82.30;;;;;;5090354;28;19919;-74
2021/09/24 13:00:56;;;;;;;;;;;23.50;82.50;;;;;;5090070;28;20250;-76
2021/09/24 13:03:23;;;;;;;;;;;23.50;82.70;;;;;;5090132;28;19904;-77
2021/09/24 13:05:51;;;;;;;;;;;23.50;82.80;;;;;;5089207;28;19927;-73
2021/09/24 13:08:18;;;;;;;;;;;23.50;82.80;;;;;;5090287;28;19908;-80
2021/09/24 13:10:43;;;;;;;;;;;23.50;82.90;;;;;;5090706;28;19915;-79
2021/09/24 13:13:09;;;;;;;;;;;23.50;83.10;;;;;;5096247;28;20277;-76
2021/09/24 13:15:35;;;;;;;;;;;23.60;83.20;;;;;;5092302;28;19960;-76
2021/09/24 13:18:03;;;;;;;;;;;23.60;83.10;;;;;;5110568;28;19928;-73
2021/09/24 13:20:30;;;;;;;;;;;23.70;83.00;;;;;;5110873;28;19914;-77
2021/09/24 13:22:56;;;;;;;;;;;23.70;83.10;;;;;;5092903;28;19918;-78
2021/09/24 13:25:21;;;;;;;;;;;23.80;83.20;;;;;;5093382;28;19990;-76
2021/09/24 13:27:47;;;;;;;;;;;23.80;83.10;;;;;;5111267;28;19911;-77
2021/09/24 13:30:13;;;;;;;;;;;23.90;83.10;;;;;;5075691;28;19919;-75
2021/09/24 13:32:38;;;;;;;;;;;24.00;82.90;;;;;;5092126;28;19908;-77
2021/09/24 13:35:05;;;;;;;;;;;24.00;82.80;;;;;;5110236;28;19912;-77
2021/09/24 13:37:30;;;;;;;;;;;23.80;82.70;;;;;;5109611;28;19911;-78
2021/09/24 13:39:56;;;;;;;;;;;23.80;82.90;;;;;;5071544;28;19938;-73
2021/09/24 13:42:21;;;;;;;;;;;23.80;83.00;;;;;;5090877;28;20378;-76
2021/09/24 13:44:47;;;;;;;;;;;23.70;83.00;;;;;;5109382;28;20254;-77
2021/09/24 13:47:12;;;;;;;;;;;23.70;83.10;;;;;;5109694;28;19919;-77
2021/09/24 13:49:38;;;;;;;;;;;23.80;83.40;;;;;;5091534;28;19923;-75
2021/09/24 13:52:04;;;;;;;;;;;23.90;83.40;;;;;;5109627;28;19912;-77
2021/09/24 13:54:29;;;;;;;;;;;24.00;83.40;;;;;;5109328;28;19934;-76
2021/09/24 13:56:55;;;;;;;;;;;24.10;83.80;;;;;;5109505;28;19979;-78
2021/09/24 13:59:22;;;;;;;;;;;24.10;82.90;;;;;;5090845;28;20030;-77
2021/09/24 14:01:47;;;;;;;;;;;24.10;82.60;;;;;;5091041;28;19912;-76
2021/09/24 14:04:13;;;;;;;;;;;23.90;82.60;;;;;;5110952;28;19910;-77
2021/09/24 14:06:39;;;;;;;;;;;23.70;82.70;;;;;;5091112;28;20342;-76
2021/09/24 14:09:04;;;;;;;;;;;23.60;83.00;;;;;;5091333;28;20563;-76
2021/09/24 14:11:30;;;;;;;;;;;23.60;83.40;;;;;;5109015;28;19908;-76
2021/09/24 14:13:58;;;;;;;;;;;23.60;83.50;;;;;;5090750;28;19927;-76
2021/09/24 14:16:24;;;;;;;;;;;23.60;83.50;;;;;;5109265;28;19946;-78